sensor_id;sensor_type;location;lat;lon;timestamp;temperature;humidity
16517;DHT22;8371;52.272;9.746;2023-10-08T00:01:47;17.40;70.60
16517;DHT22;8371;52.272;9.746;2023-10-08T00:04:13;17.10;70.20
16517;DHT22;8371;52.272;9.746;2023-10-08T00:06:41;16.90;70.50
16517;DHT22;8371;52.272;9.746;2023-10-08T00:09:06;16.70;70.50
16517;DHT22;8371;52.272;9.746;2023-10-08T00:11:37;16.50;71.00
16517;DHT22;8371;52.272;9.746;2023-10-08T00:14:04;16.40;71.30
16517;DHT22;8371;52.272;9.746;2023-10-08T00:16:38;16.20;71.70
16517;DHT22;8371;52.272;9.746;2023-10-08T00:19:06;16.10;72.10
16517;DHT22;8371;52.272;9.746;2023-10-08T00:21:35;16.00;72.20
16517;DHT22;8371;52.272;9.746;2023-10-08T00:24:03;15.90;72.40
16517;DHT22;8371;52.272;9.746;2023-10-08T00:26:31;15.90;72.60
16517;DHT22;8371;52.272;9.746;2023-10-08T00:29:02;15.80;72.80
16517;DHT22;8371;52.272;9.746;2023-10-08T00:31:47;15.70;72.60
16517;DHT22;8371;52.272;9.746;2023-10-08T00:34:18;15.70;72.70
16517;DHT22;8371;52.272;9.746;2023-10-08T00:36:48;15.60;72.80
16517;DHT22;8371;52.272;9.746;2023-10-08T00:39:14;15.50;72.90
16517;DHT22;8371;52.272;9.746;2023-10-08T00:41:45;15.40;73.60
16517;DHT22;8371;52.272;9.746;2023-10-08T00:44:13;15.40;73.00
16517;DHT22;8371;52.272;9.746;2023-10-08T00:46:41;15.30;73.20
16517;DHT22;8371;52.272;9.746;2023-10-08T00:49:16;15.20;73.30
16517;DHT22;8371;52.272;9.746;2023-10-08T00:52:02;15.20;73.50
16517;DHT22;8371;52.272;9.746;2023-10-08T00:54:36;15.10;73.50
16517;DHT22;8371;52.272;9.746;2023-10-08T00:57:07;15.10;74.40
16517;DHT22;8371;52.272;9.746;2023-10-08T00:59:33;15.00;73.90
16517;DHT22;8371;52.272;9.746;2023-10-08T01:02:01;15.00;74.20
16517;DHT22;8371;52.272;9.746;2023-10-08T01:04:28;14.90;73.90
16517;DHT22;8371;52.272;9.746;2023-10-08T01:07:00;14.90;73.90
16517;DHT22;8371;52.272;9.746;2023-10-08T01:09:31;14.90;74.10
16517;DHT22;8371;52.272;9.746;2023-10-08T01:12:13;14.80;74.10
16517;DHT22;8371;52.272;9.746;2023-10-08T01:14:43;14.70;74.10
16517;DHT22;8371;52.272;9.746;2023-10-08T01:17:12;14.70;74.90
16517;DHT22;8371;52.272;9.746;2023-10-08T01:19:41;14.60;74.30
16517;DHT22;8371;52.272;9.746;2023-10-08T01:22:08;14.60;74.40
16517;DHT22;8371;52.272;9.746;2023-10-08T01:24:36;14.50;74.70
16517;DHT22;8371;52.272;9.746;2023-10-08T01:27:02;14.50;74.80
16517;DHT22;8371;52.272;9.746;2023-10-08T01:29:29;14.50;75.10
16517;DHT22;8371;52.272;9.746;2023-10-08T01:31:57;14.50;75.10
16517;DHT22;8371;52.272;9.746;2023-10-08T01:34:23;14.50;75.20
16517;DHT22;8371;52.272;9.746;2023-10-08T01:36:56;14.50;75.10
16517;DHT22;8371;52.272;9.746;2023-10-08T01:39:24;14.50;75.20
16517;DHT22;8371;52.272;9.746;2023-10-08T01:41:51;14.40;75.20
16517;DHT22;8371;52.272;9.746;2023-10-08T01:44:17;14.40;75.20
16517;DHT22;8371;52.272;9.746;2023-10-08T01:46:43;14.30;75.00
16517;DHT22;8371;52.272;9.746;2023-10-08T01:49:09;14.30;74.50
16517;DHT22;8371;52.272;9.746;2023-10-08T01:51:36;14.20;74.40
16517;DHT22;8371;52.272;9.746;2023-10-08T01:54:07;14.10;74.50
16517;DHT22;8371;52.272;9.746;2023-10-08T01:56:34;14.00;74.60
16517;DHT22;8371;52.272;9.746;2023-10-08T01:59:00;13.90;74.60
16517;DHT22;8371;52.272;9.746;2023-10-08T02:01:26;13.80;74.70
16517;DHT22;8371;52.272;9.746;2023-10-08T02:03:51;13.80;74.80
16517;DHT22;8371;52.272;9.746;2023-10-08T02:06:17;13.70;75.00
16517;DHT22;8371;52.272;9.746;2023-10-08T02:09:06;13.60;75.20
16517;DHT22;8371;52.272;9.746;2023-10-08T02:11:18;13.60;75.70
16517;DHT22;8371;52.272;9.746;2023-10-08T02:13:45;13.60;76.00
16517;DHT22;8371;52.272;9.746;2023-10-08T02:16:17;13.60;76.30
16517;DHT22;8371;52.272;9.746;2023-10-08T02:18:43;13.60;76.60
16517;DHT22;8371;52.272;9.746;2023-10-08T02:21:09;13.60;76.80
16517;DHT22;8371;52.272;9.746;2023-10-08T02:23:36;13.60;76.90
16517;DHT22;8371;52.272;9.746;2023-10-08T02:26:02;13.60;77.20
16517;DHT22;8371;52.272;9.746;2023-10-08T02:28:28;13.60;77.20
16517;DHT22;8371;52.272;9.746;2023-10-08T02:30:54;13.60;77.20
16517;DHT22;8371;52.272;9.746;2023-10-08T02:33:20;13.70;77.20
16517;DHT22;8371;52.272;9.746;2023-10-08T02:35:46;13.70;77.20
16517;DHT22;8371;52.272;9.746;2023-10-08T02:38:15;13.70;77.30
16517;DHT22;8371;52.272;9.746;2023-10-08T02:40:46;13.80;77.40
16517;DHT22;8371;52.272;9.746;2023-10-08T02:43:14;13.80;77.40
16517;DHT22;8371;52.272;9.746;2023-10-08T02:45:41;13.80;77.40
16517;DHT22;8371;52.272;9.746;2023-10-08T02:48:08;13.90;77.60
16517;DHT22;8371;52.272;9.746;2023-10-08T02:50:35;13.90;77.70
16517;DHT22;8371;52.272;9.746;2023-10-08T02:53:02;13.90;77.60
16517;DHT22;8371;52.272;9.746;2023-10-08T02:55:30;13.90;77.60
16517;DHT22;8371;52.272;9.746;2023-10-08T02:58:02;13.90;77.50
16517;DHT22;8371;52.272;9.746;2023-10-08T03:00:30;14.00;77.60
16517;DHT22;8371;52.272;9.746;2023-10-08T03:02:57;14.00;77.60
16517;DHT22;8371;52.272;9.746;2023-10-08T03:05:23;14.00;77.50
16517;DHT22;8371;52.272;9.746;2023-10-08T03:07:51;14.00;77.60
16517;DHT22;8371;52.272;9.746;2023-10-08T03:10:17;14.00;77.70
16517;DHT22;8371;52.272;9.746;2023-10-08T03:12:44;14.00;77.80
16517;DHT22;8371;52.272;9.746;2023-10-08T03:15:13;14.00;77.80
16517;DHT22;8371;52.272;9.746;2023-10-08T03:17:40;14.10;78.00
16517;DHT22;8371;52.272;9.746;2023-10-08T03:20:09;14.10;78.00
16517;DHT22;8371;52.272;9.746;2023-10-08T03:22:58;14.10;78.00
16517;DHT22;8371;52.272;9.746;2023-10-08T03:25:24;14.10;78.80
16517;DHT22;8371;52.272;9.746;2023-10-08T03:27:51;14.10;78.10
16517;DHT22;8371;52.272;9.746;2023-10-08T03:30:18;14.20;78.20
16517;DHT22;8371;52.272;9.746;2023-10-08T03:32:44;14.10;78.10
16517;DHT22;8371;52.272;9.746;2023-10-08T03:35:10;14.20;78.20
16517;DHT22;8371;52.272;9.746;2023-10-08T03:37:38;14.20;78.20
16517;DHT22;8371;52.272;9.746;2023-10-08T03:40:10;14.20;78.20
16517;DHT22;8371;52.272;9.746;2023-10-08T03:42:57;14.20;78.20
16517;DHT22;8371;52.272;9.746;2023-10-08T03:45:23;14.20;78.20
16517;DHT22;8371;52.272;9.746;2023-10-08T03:48:07;14.20;78.30
16517;DHT22;8371;52.272;9.746;2023-10-08T03:50:35;14.20;78.30
16517;DHT22;8371;52.272;9.746;2023-10-08T03:53:09;14.20;79.20
16517;DHT22;8371;52.272;9.746;2023-10-08T03:55:39;14.20;78.50
16517;DHT22;8371;52.272;9.746;2023-10-08T03:58:08;14.20;78.50
16517;DHT22;8371;52.272;9.746;2023-10-08T04:00:38;14.20;78.50
16517;DHT22;8371;52.272;9.746;2023-10-08T04:03:06;14.20;78.50
16517;DHT22;8371;52.272;9.746;2023-10-08T04:05:37;14.20;78.50
16517;DHT22;8371;52.272;9.746;2023-10-08T04:08:22;14.20;78.50
16517;DHT22;8371;52.272;9.746;2023-10-08T04:10:52;14.20;78.60
16517;DHT22;8371;52.272;9.746;2023-10-08T04:13:20;14.20;78.60
16517;DHT22;8371;52.272;9.746;2023-10-08T04:15:45;14.20;78.50
16517;DHT22;8371;52.272;9.746;2023-10-08T04:18:11;14.20;78.50
16517;DHT22;8371;52.272;9.746;2023-10-08T04:20:38;14.20;78.60
16517;DHT22;8371;52.272;9.746;2023-10-08T04:23:06;14.20;78.60
16517;DHT22;8371;52.272;9.746;2023-10-08T04:25:41;14.10;78.50
16517;DHT22;8371;52.272;9.746;2023-10-08T04:28:08;14.10;78.60
16517;DHT22;8371;52.272;9.746;2023-10-08T04:30:36;14.10;78.60
16517;DHT22;8371;52.272;9.746;2023-10-08T04:33:05;14.10;78.60
16517;DHT22;8371;52.272;9.746;2023-10-08T04:35:36;14.10;78.60
16517;DHT22;8371;52.272;9.746;2023-10-08T04:38:04;14.10;78.60
16517;DHT22;8371;52.272;9.746;2023-10-08T04:40:31;14.10;78.60
16517;DHT22;8371;52.272;9.746;2023-10-08T04:42:59;14.10;78.70
16517;DHT22;8371;52.272;9.746;2023-10-08T04:45:26;14.10;78.80
16517;DHT22;8371;52.272;9.746;2023-10-08T04:47:54;14.10;78.90
16517;DHT22;8371;52.272;9.746;2023-10-08T04:50:22;14.00;79.00
16517;DHT22;8371;52.272;9.746;2023-10-08T04:52:49;14.10;79.00
16517;DHT22;8371;52.272;9.746;2023-10-08T04:55:25;14.10;79.10
16517;DHT22;8371;52.272;9.746;2023-10-08T04:57:52;14.10;79.10
16517;DHT22;8371;52.272;9.746;2023-10-08T05:00:18;14.00;79.20
16517;DHT22;8371;52.272;9.746;2023-10-08T05:02:46;14.00;79.40
16517;DHT22;8371;52.272;9.746;2023-10-08T05:05:16;14.00;79.40
16517;DHT22;8371;52.272;9.746;2023-10-08T05:07:43;14.10;79.60
16517;DHT22;8371;52.272;9.746;2023-10-08T05:10:14;14.10;79.60
16517;DHT22;8371;52.272;9.746;2023-10-08T05:12:52;14.10;79.60
16517;DHT22;8371;52.272;9.746;2023-10-08T05:15:32;14.10;79.70
16517;DHT22;8371;52.272;9.746;2023-10-08T05:17:59;14.10;79.70
16517;DHT22;8371;52.272;9.746;2023-10-08T05:20:27;14.10;79.80
16517;DHT22;8371;52.272;9.746;2023-10-08T05:22:57;14.10;79.90
16517;DHT22;8371;52.272;9.746;2023-10-08T05:25:25;14.10;80.70
16517;DHT22;8371;52.272;9.746;2023-10-08T05:27:53;14.10;79.90
16517;DHT22;8371;52.272;9.746;2023-10-08T05:30:25;14.10;80.00
16517;DHT22;8371;52.272;9.746;2023-10-08T05:32:56;14.10;80.00
16517;DHT22;8371;52.272;9.746;2023-10-08T05:35:41;14.10;79.90
16517;DHT22;8371;52.272;9.746;2023-10-08T05:38:13;14.10;79.90
16517;DHT22;8371;52.272;9.746;2023-10-08T05:40:50;14.10;80.70
16517;DHT22;8371;52.272;9.746;2023-10-08T05:46:09;14.10;80.10
16517;DHT22;8371;52.272;9.746;2023-10-08T05:49:09;14.10;80.10
16517;DHT22;8371;52.272;9.746;2023-10-08T05:51:38;14.10;80.20
16517;DHT22;8371;52.272;9.746;2023-10-08T05:54:17;14.10;80.20
16517;DHT22;8371;52.272;9.746;2023-10-08T05:56:59;14.10;80.30
16517;DHT22;8371;52.272;9.746;2023-10-08T05:59:44;14.00;80.30
16517;DHT22;8371;52.272;9.746;2023-10-08T06:02:26;14.10;80.30
16517;DHT22;8371;52.272;9.746;2023-10-08T06:05:02;14.10;80.30
16517;DHT22;8371;52.272;9.746;2023-10-08T06:07:44;14.10;80.30
16517;DHT22;8371;52.272;9.746;2023-10-08T06:10:28;14.10;80.40
16517;DHT22;8371;52.272;9.746;2023-10-08T06:13:02;14.10;80.40
16517;DHT22;8371;52.272;9.746;2023-10-08T06:15:50;14.10;80.50
16517;DHT22;8371;52.272;9.746;2023-10-08T06:18:19;14.10;80.70
16517;DHT22;8371;52.272;9.746;2023-10-08T06:20:46;14.10;80.80
16517;DHT22;8371;52.272;9.746;2023-10-08T06:23:14;14.10;80.90
16517;DHT22;8371;52.272;9.746;2023-10-08T06:25:42;14.10;81.00
16517;DHT22;8371;52.272;9.746;2023-10-08T06:28:17;14.10;81.00
16517;DHT22;8371;52.272;9.746;2023-10-08T06:30:47;14.20;81.20
16517;DHT22;8371;52.272;9.746;2023-10-08T06:33:14;14.20;81.30
16517;DHT22;8371;52.272;9.746;2023-10-08T06:35:42;14.20;81.30
16517;DHT22;8371;52.272;9.746;2023-10-08T06:38:10;14.30;81.40
16517;DHT22;8371;52.272;9.746;2023-10-08T06:40:37;14.30;81.40
16517;DHT22;8371;52.272;9.746;2023-10-08T06:43:05;14.30;81.50
16517;DHT22;8371;52.272;9.746;2023-10-08T06:45:44;14.30;81.60
16517;DHT22;8371;52.272;9.746;2023-10-08T06:48:12;14.40;81.70
16517;DHT22;8371;52.272;9.746;2023-10-08T06:50:40;14.40;81.70
16517;DHT22;8371;52.272;9.746;2023-10-08T06:53:06;14.50;81.90
16517;DHT22;8371;52.272;9.746;2023-10-08T06:55:34;14.50;82.00
16517;DHT22;8371;52.272;9.746;2023-10-08T06:58:02;14.60;82.10
16517;DHT22;8371;52.272;9.746;2023-10-08T07:00:29;14.60;82.40
16517;DHT22;8371;52.272;9.746;2023-10-08T07:02:57;14.70;82.20
16517;DHT22;8371;52.272;9.746;2023-10-08T07:05:22;14.80;82.50
16517;DHT22;8371;52.272;9.746;2023-10-08T07:07:48;14.80;82.30
16517;DHT22;8371;52.272;9.746;2023-10-08T07:10:14;14.90;82.30
16517;DHT22;8371;52.272;9.746;2023-10-08T07:12:41;14.90;82.00
16517;DHT22;8371;52.272;9.746;2023-10-08T07:15:09;15.00;81.90
16517;DHT22;8371;52.272;9.746;2023-10-08T07:17:37;15.00;81.80
16517;DHT22;8371;52.272;9.746;2023-10-08T07:20:17;15.00;81.70
16517;DHT22;8371;52.272;9.746;2023-10-08T07:22:42;15.00;81.70
16517;DHT22;8371;52.272;9.746;2023-10-08T07:25:09;15.10;81.90
16517;DHT22;8371;52.272;9.746;2023-10-08T07:27:45;15.10;82.10
16517;DHT22;8371;52.272;9.746;2023-10-08T07:30:11;15.20;82.30
16517;DHT22;8371;52.272;9.746;2023-10-08T07:32:38;15.30;82.40
16517;DHT22;8371;52.272;9.746;2023-10-08T07:35:04;15.30;82.30
16517;DHT22;8371;52.272;9.746;2023-10-08T07:37:48;15.40;82.30
16517;DHT22;8371;52.272;9.746;2023-10-08T07:40:13;15.50;82.10
16517;DHT22;8371;52.272;9.746;2023-10-08T07:42:40;15.50;82.00
16517;DHT22;8371;52.272;9.746;2023-10-08T07:45:06;15.60;82.00
16517;DHT22;8371;52.272;9.746;2023-10-08T07:47:32;15.60;82.00
16517;DHT22;8371;52.272;9.746;2023-10-08T07:49:57;15.70;82.00
16517;DHT22;8371;52.272;9.746;2023-10-08T07:52:26;15.80;82.20
16517;DHT22;8371;52.272;9.746;2023-10-08T07:54:52;15.80;82.10
16517;DHT22;8371;52.272;9.746;2023-10-08T07:57:18;15.90;82.10
16517;DHT22;8371;52.272;9.746;2023-10-08T07:59:46;16.00;81.90
16517;DHT22;8371;52.272;9.746;2023-10-08T08:02:13;16.10;81.70
16517;DHT22;8371;52.272;9.746;2023-10-08T08:04:43;16.10;81.50
16517;DHT22;8371;52.272;9.746;2023-10-08T08:07:11;16.20;81.40
16517;DHT22;8371;52.272;9.746;2023-10-08T08:09:46;16.20;81.20
16517;DHT22;8371;52.272;9.746;2023-10-08T08:12:21;16.30;81.20
16517;DHT22;8371;52.272;9.746;2023-10-08T08:14:47;16.30;81.20
16517;DHT22;8371;52.272;9.746;2023-10-08T08:17:14;16.30;81.10
16517;DHT22;8371;52.272;9.746;2023-10-08T08:19:42;16.40;81.10
16517;DHT22;8371;52.272;9.746;2023-10-08T08:22:10;16.40;81.00
16517;DHT22;8371;52.272;9.746;2023-10-08T08:24:41;16.50;81.00
16517;DHT22;8371;52.272;9.746;2023-10-08T08:27:09;16.50;81.10
16517;DHT22;8371;52.272;9.746;2023-10-08T08:29:37;16.60;81.00
16517;DHT22;8371;52.272;9.746;2023-10-08T08:32:14;16.60;81.90
16517;DHT22;8371;52.272;9.746;2023-10-08T08:34:42;16.70;81.00
16517;DHT22;8371;52.272;9.746;2023-10-08T08:37:12;16.70;80.70
16517;DHT22;8371;52.272;9.746;2023-10-08T08:39:38;16.80;80.40
16517;DHT22;8371;52.272;9.746;2023-10-08T08:42:04;16.80;80.10
16517;DHT22;8371;52.272;9.746;2023-10-08T08:44:35;16.80;79.90
16517;DHT22;8371;52.272;9.746;2023-10-08T08:47:03;16.80;79.80
16517;DHT22;8371;52.272;9.746;2023-10-08T08:49:34;16.80;79.70
16517;DHT22;8371;52.272;9.746;2023-10-08T08:52:02;16.80;79.50
16517;DHT22;8371;52.272;9.746;2023-10-08T08:54:29;16.80;79.50
16517;DHT22;8371;52.272;9.746;2023-10-08T08:56:56;16.90;79.50
16517;DHT22;8371;52.272;9.746;2023-10-08T08:59:26;16.90;79.50
16517;DHT22;8371;52.272;9.746;2023-10-08T09:01:53;16.90;79.50
16517;DHT22;8371;52.272;9.746;2023-10-08T09:04:30;16.90;79.50
16517;DHT22;8371;52.272;9.746;2023-10-08T09:06:57;17.00;79.60
16517;DHT22;8371;52.272;9.746;2023-10-08T09:09:30;17.10;79.60
16517;DHT22;8371;52.272;9.746;2023-10-08T09:11:53;17.10;79.60
16517;DHT22;8371;52.272;9.746;2023-10-08T09:14:25;17.20;79.70
16517;DHT22;8371;52.272;9.746;2023-10-08T09:16:52;17.30;79.60
16517;DHT22;8371;52.272;9.746;2023-10-08T09:19:20;17.40;79.30
16517;DHT22;8371;52.272;9.746;2023-10-08T09:24:40;17.60;79.30
16517;DHT22;8371;52.272;9.746;2023-10-08T09:27:05;17.70;79.20
16517;DHT22;8371;52.272;9.746;2023-10-08T09:29:31;17.80;79.20
16517;DHT22;8371;52.272;9.746;2023-10-08T09:31:58;18.00;79.10
16517;DHT22;8371;52.272;9.746;2023-10-08T09:34:31;18.10;78.80
16517;DHT22;8371;52.272;9.746;2023-10-08T09:36:58;18.30;78.50
16517;DHT22;8371;52.272;9.746;2023-10-08T09:39:27;18.40;78.40
16517;DHT22;8371;52.272;9.746;2023-10-08T09:42:02;18.60;78.20
16517;DHT22;8371;52.272;9.746;2023-10-08T09:44:29;18.80;77.70
16517;DHT22;8371;52.272;9.746;2023-10-08T09:46:59;18.90;77.70
16517;DHT22;8371;52.272;9.746;2023-10-08T09:49:30;19.00;77.60
16517;DHT22;8371;52.272;9.746;2023-10-08T09:52:03;19.20;78.00
16517;DHT22;8371;52.272;9.746;2023-10-08T09:54:35;19.40;77.00
16517;DHT22;8371;52.272;9.746;2023-10-08T09:57:02;19.50;76.70
16517;DHT22;8371;52.272;9.746;2023-10-08T09:59:29;19.70;76.80
16517;DHT22;8371;52.272;9.746;2023-10-08T10:01:55;19.80;76.50
16517;DHT22;8371;52.272;9.746;2023-10-08T10:04:23;20.00;76.30
16517;DHT22;8371;52.272;9.746;2023-10-08T10:06:57;20.20;75.70
16517;DHT22;8371;52.272;9.746;2023-10-08T10:09:26;20.40;75.70
16517;DHT22;8371;52.272;9.746;2023-10-08T10:11:54;20.70;75.40
16517;DHT22;8371;52.272;9.746;2023-10-08T10:14:23;20.90;74.90
16517;DHT22;8371;52.272;9.746;2023-10-08T10:17:14;21.10;74.60
16517;DHT22;8371;52.272;9.746;2023-10-08T10:19:41;21.40;74.30
16517;DHT22;8371;52.272;9.746;2023-10-08T10:22:10;21.60;73.90
16517;DHT22;8371;52.272;9.746;2023-10-08T10:24:37;21.80;73.40
16517;DHT22;8371;52.272;9.746;2023-10-08T10:27:14;21.90;73.00
16517;DHT22;8371;52.272;9.746;2023-10-08T10:29:37;22.20;72.70
16517;DHT22;8371;52.272;9.746;2023-10-08T10:32:03;22.40;72.20
16517;DHT22;8371;52.272;9.746;2023-10-08T10:34:30;22.50;71.20
16517;DHT22;8371;52.272;9.746;2023-10-08T10:36:59;22.60;70.90
16517;DHT22;8371;52.272;9.746;2023-10-08T10:39:26;22.70;70.40
16517;DHT22;8371;52.272;9.746;2023-10-08T10:41:55;22.80;70.30
16517;DHT22;8371;52.272;9.746;2023-10-08T10:44:25;23.00;70.50
16517;DHT22;8371;52.272;9.746;2023-10-08T10:46:52;23.10;69.80
16517;DHT22;8371;52.272;9.746;2023-10-08T10:49:20;23.20;69.30
16517;DHT22;8371;52.272;9.746;2023-10-08T10:51:51;23.30;69.10
16517;DHT22;8371;52.272;9.746;2023-10-08T10:54:24;23.30;68.70
16517;DHT22;8371;52.272;9.746;2023-10-08T10:56:51;23.40;68.10
16517;DHT22;8371;52.272;9.746;2023-10-08T10:59:32;23.40;67.50
16517;DHT22;8371;52.272;9.746;2023-10-08T11:02:04;23.50;67.60
16517;DHT22;8371;52.272;9.746;2023-10-08T11:04:34;23.50;67.30
16517;DHT22;8371;52.272;9.746;2023-10-08T11:07:02;23.50;67.10
16517;DHT22;8371;52.272;9.746;2023-10-08T11:09:30;23.50;67.00
16517;DHT22;8371;52.272;9.746;2023-10-08T11:12:03;23.60;66.80
16517;DHT22;8371;52.272;9.746;2023-10-08T11:14:31;23.70;66.90
16517;DHT22;8371;52.272;9.746;2023-10-08T11:16:58;23.80;66.60
16517;DHT22;8371;52.272;9.746;2023-10-08T11:19:24;23.90;66.20
16517;DHT22;8371;52.272;9.746;2023-10-08T11:21:52;24.00;65.50
16517;DHT22;8371;52.272;9.746;2023-10-08T11:24:33;24.00;65.30
16517;DHT22;8371;52.272;9.746;2023-10-08T11:27:02;24.10;65.30
16517;DHT22;8371;52.272;9.746;2023-10-08T11:29:30;24.20;65.00
16517;DHT22;8371;52.272;9.746;2023-10-08T11:31:55;24.20;64.50
16517;DHT22;8371;52.272;9.746;2023-10-08T11:34:21;24.20;64.40
16517;DHT22;8371;52.272;9.746;2023-10-08T11:36:53;24.30;64.30
16517;DHT22;8371;52.272;9.746;2023-10-08T11:39:21;24.30;63.90
16517;DHT22;8371;52.272;9.746;2023-10-08T11:41:55;24.40;63.30
16517;DHT22;8371;52.272;9.746;2023-10-08T11:44:21;24.40;63.10
16517;DHT22;8371;52.272;9.746;2023-10-08T11:46:49;24.40;63.00
16517;DHT22;8371;52.272;9.746;2023-10-08T11:49:18;24.40;63.00
16517;DHT22;8371;52.272;9.746;2023-10-08T11:51:45;24.40;62.90
16517;DHT22;8371;52.272;9.746;2023-10-08T11:54:11;24.50;62.50
16517;DHT22;8371;52.272;9.746;2023-10-08T11:56:38;24.50;62.60
16517;DHT22;8371;52.272;9.746;2023-10-08T11:59:05;24.50;62.10
16517;DHT22;8371;52.272;9.746;2023-10-08T12:01:35;24.50;61.60
16517;DHT22;8371;52.272;9.746;2023-10-08T12:04:03;24.50;61.40
16517;DHT22;8371;52.272;9.746;2023-10-08T12:06:29;24.50;61.10
16517;DHT22;8371;52.272;9.746;2023-10-08T12:08:56;24.60;61.30
16517;DHT22;8371;52.272;9.746;2023-10-08T12:11:27;24.60;61.20
16517;DHT22;8371;52.272;9.746;2023-10-08T12:13:54;24.60;61.40
16517;DHT22;8371;52.272;9.746;2023-10-08T12:16:21;24.70;60.90
16517;DHT22;8371;52.272;9.746;2023-10-08T12:18:48;24.70;60.90
16517;DHT22;8371;52.272;9.746;2023-10-08T12:21:16;24.70;60.30
16517;DHT22;8371;52.272;9.746;2023-10-08T12:23:43;24.70;59.80
16517;DHT22;8371;52.272;9.746;2023-10-08T12:26:11;24.60;59.50
16517;DHT22;8371;52.272;9.746;2023-10-08T12:28:39;24.60;59.40
16517;DHT22;8371;52.272;9.746;2023-10-08T12:31:05;24.50;59.30
16517;DHT22;8371;52.272;9.746;2023-10-08T12:33:31;24.50;59.30
16517;DHT22;8371;52.272;9.746;2023-10-08T12:35:58;24.40;59.50
16517;DHT22;8371;52.272;9.746;2023-10-08T12:38:26;24.30;59.10
16517;DHT22;8371;52.272;9.746;2023-10-08T12:40:57;24.20;59.00
16517;DHT22;8371;52.272;9.746;2023-10-08T12:43:25;24.20;59.10
16517;DHT22;8371;52.272;9.746;2023-10-08T12:45:54;24.00;58.90
16517;DHT22;8371;52.272;9.746;2023-10-08T12:48:23;24.00;58.90
16517;DHT22;8371;52.272;9.746;2023-10-08T12:50:50;23.90;59.00
16517;DHT22;8371;52.272;9.746;2023-10-08T12:53:20;23.80;59.10
16517;DHT22;8371;52.272;9.746;2023-10-08T12:55:50;23.70;58.70
16517;DHT22;8371;52.272;9.746;2023-10-08T12:58:18;23.60;58.50
16517;DHT22;8371;52.272;9.746;2023-10-08T13:00:43;23.60;58.60
16517;DHT22;8371;52.272;9.746;2023-10-08T13:03:11;23.50;58.80
16517;DHT22;8371;52.272;9.746;2023-10-08T13:05:39;23.50;59.10
16517;DHT22;8371;52.272;9.746;2023-10-08T13:08:06;23.60;59.10
16517;DHT22;8371;52.272;9.746;2023-10-08T13:10:34;23.60;59.00
16517;DHT22;8371;52.272;9.746;2023-10-08T13:13:00;23.50;58.90
16517;DHT22;8371;52.272;9.746;2023-10-08T13:15:25;23.50;58.70
16517;DHT22;8371;52.272;9.746;2023-10-08T13:17:52;23.50;58.50
16517;DHT22;8371;52.272;9.746;2023-10-08T13:20:18;23.40;58.50
16517;DHT22;8371;52.272;9.746;2023-10-08T13:22:44;23.40;58.40
16517;DHT22;8371;52.272;9.746;2023-10-08T13:25:11;23.30;58.40
16517;DHT22;8371;52.272;9.746;2023-10-08T13:27:38;23.20;58.00
16517;DHT22;8371;52.272;9.746;2023-10-08T13:30:06;23.20;57.90
16517;DHT22;8371;52.272;9.746;2023-10-08T13:32:35;23.10;57.90
16517;DHT22;8371;52.272;9.746;2023-10-08T13:35:05;23.00;57.70
16517;DHT22;8371;52.272;9.746;2023-10-08T13:37:34;22.80;57.90
16517;DHT22;8371;52.272;9.746;2023-10-08T13:40:01;22.80;58.00
16517;DHT22;8371;52.272;9.746;2023-10-08T13:42:27;22.70;57.90
16517;DHT22;8371;52.272;9.746;2023-10-08T13:44:53;22.60;58.10
16517;DHT22;8371;52.272;9.746;2023-10-08T13:47:20;22.50;57.80
16517;DHT22;8371;52.272;9.746;2023-10-08T13:49:48;22.40;57.70
16517;DHT22;8371;52.272;9.746;2023-10-08T13:52:15;22.30;57.70
16517;DHT22;8371;52.272;9.746;2023-10-08T13:54:42;22.20;57.90
16517;DHT22;8371;52.272;9.746;2023-10-08T13:57:10;22.10;58.20
16517;DHT22;8371;52.272;9.746;2023-10-08T13:59:38;22.10;58.60
16517;DHT22;8371;52.272;9.746;2023-10-08T14:02:03;22.10;58.70
16517;DHT22;8371;52.272;9.746;2023-10-08T14:04:31;22.10;58.60
16517;DHT22;8371;52.272;9.746;2023-10-08T14:06:58;22.10;58.70
16517;DHT22;8371;52.272;9.746;2023-10-08T14:09:24;22.10;58.70
16517;DHT22;8371;52.272;9.746;2023-10-08T14:12:03;22.20;58.90
16517;DHT22;8371;52.272;9.746;2023-10-08T14:14:29;22.20;58.90
16517;DHT22;8371;52.272;9.746;2023-10-08T14:16:56;22.30;58.90
16517;DHT22;8371;52.272;9.746;2023-10-08T14:19:24;22.40;58.90
16517;DHT22;8371;52.272;9.746;2023-10-08T14:21:51;22.50;58.80
16517;DHT22;8371;52.272;9.746;2023-10-08T14:24:21;22.60;58.40
16517;DHT22;8371;52.272;9.746;2023-10-08T14:26:49;22.60;58.30
16517;DHT22;8371;52.272;9.746;2023-10-08T14:29:16;22.60;58.10
16517;DHT22;8371;52.272;9.746;2023-10-08T14:31:44;22.60;57.90
16517;DHT22;8371;52.272;9.746;2023-10-08T14:34:11;22.70;57.80
16517;DHT22;8371;52.272;9.746;2023-10-08T14:36:46;22.60;57.90
16517;DHT22;8371;52.272;9.746;2023-10-08T14:39:34;22.60;57.80
16517;DHT22;8371;52.272;9.746;2023-10-08T14:42:19;22.60;57.70
16517;DHT22;8371;52.272;9.746;2023-10-08T14:45:04;22.60;58.00
16517;DHT22;8371;52.272;9.746;2023-10-08T14:47:38;22.50;57.90
16517;DHT22;8371;52.272;9.746;2023-10-08T14:50:05;22.60;57.70
16517;DHT22;8371;52.272;9.746;2023-10-08T14:52:31;22.50;57.70
16517;DHT22;8371;52.272;9.746;2023-10-08T14:54:58;22.50;57.70
16517;DHT22;8371;52.272;9.746;2023-10-08T14:57:24;22.50;57.90
16517;DHT22;8371;52.272;9.746;2023-10-08T14:59:52;22.50;58.00
16517;DHT22;8371;52.272;9.746;2023-10-08T15:02:17;22.40;57.80
16517;DHT22;8371;52.272;9.746;2023-10-08T15:04:43;22.40;58.00
16517;DHT22;8371;52.272;9.746;2023-10-08T15:07:10;22.40;57.70
16517;DHT22;8371;52.272;9.746;2023-10-08T15:09:40;22.50;57.90
16517;DHT22;8371;52.272;9.746;2023-10-08T15:12:07;22.50;57.70
16517;DHT22;8371;52.272;9.746;2023-10-08T15:14:34;22.40;57.60
16517;DHT22;8371;52.272;9.746;2023-10-08T15:17:00;22.40;57.60
16517;DHT22;8371;52.272;9.746;2023-10-08T15:19:26;22.40;57.40
16517;DHT22;8371;52.272;9.746;2023-10-08T15:21:53;22.40;57.50
16517;DHT22;8371;52.272;9.746;2023-10-08T15:24:22;22.30;57.40
16517;DHT22;8371;52.272;9.746;2023-10-08T15:26:49;22.30;57.50
16517;DHT22;8371;52.272;9.746;2023-10-08T15:29:15;22.20;57.50
16517;DHT22;8371;52.272;9.746;2023-10-08T15:31:43;22.20;57.60
16517;DHT22;8371;52.272;9.746;2023-10-08T15:34:11;22.10;57.20
16517;DHT22;8371;52.272;9.746;2023-10-08T15:36:39;22.10;57.40
16517;DHT22;8371;52.272;9.746;2023-10-08T15:39:05;22.00;57.70
16517;DHT22;8371;52.272;9.746;2023-10-08T15:41:31;22.00;57.70
16517;DHT22;8371;52.272;9.746;2023-10-08T15:43:57;21.90;57.50
16517;DHT22;8371;52.272;9.746;2023-10-08T15:46:25;21.80;57.50
16517;DHT22;8371;52.272;9.746;2023-10-08T15:48:52;21.70;57.40
16517;DHT22;8371;52.272;9.746;2023-10-08T15:51:19;21.60;57.30
16517;DHT22;8371;52.272;9.746;2023-10-08T15:53:45;21.50;57.50
16517;DHT22;8371;52.272;9.746;2023-10-08T15:56:11;21.40;57.40
16517;DHT22;8371;52.272;9.746;2023-10-08T15:58:37;21.20;57.30
16517;DHT22;8371;52.272;9.746;2023-10-08T16:01:03;21.10;57.40
16517;DHT22;8371;52.272;9.746;2023-10-08T16:03:28;21.00;57.60